Time;durP1;ratioP1;P1;durP2;ratioP2;P2;SDS_P1;SDS_P2;PMS_P1;PMS_P2;Temp;Humidity;BMP_temperature;BMP_pressure;BME280_temperature;BME280_humidity;BME280_pressure;Samples;Min_cycle;Max_cycle;Signal;HPM_P1;HPM_P2
2022/04/01 00:01:37;;;;;;;27.58;18.25;;;;;;;2.72;63.54;98651.81;4971297;28;20054;-70
2022/04/01 00:04:04;;;;;;;28.42;18.27;;;;;;;2.74;63.37;98643.47;4969267;28;20047;-69
2022/04/01 00:06:30;;;;;;;25.73;16.70;;;;;;;2.79;63.27;98640.81;4971119;28;20078;-70
2022/04/01 00:08:56;;;;;;;26.67;16.90;;;;;;;2.83;63.30;98655.47;4971789;28;20134;-69
2022/04/01 00:11:22;;;;;;;27.00;17.20;;;;;;;2.90;63.13;98649.88;4971589;28;20583;-72
2022/04/01 00:13:48;;;;;;;24.80;16.77;;;;;;;2.91;62.72;98652.31;4970677;28;20055;-70
2022/04/01 00:16:16;;;;;;;27.83;17.45;;;;;;;2.89;63.07;98651.75;4969484;28;20051;-71
2022/04/01 00:18:42;;;;;;;28.52;17.25;;;;;;;2.81;63.26;98644.91;4971857;28;20046;-71
2022/04/01 00:21:09;;;;;;;28.63;17.02;;;;;;;2.76;63.50;98642.16;4970241;28;20062;-71
2022/04/01 00:23:35;;;;;;;30.33;18.60;;;;;;;2.73;63.71;98644.53;4972325;28;20049;-71
2022/04/01 00:26:01;;;;;;;27.85;17.55;;;;;;;2.69;63.79;98649.63;4974656;28;20055;-72
2022/04/01 00:28:28;;;;;;;27.70;18.60;;;;;;;2.78;63.54;98650.81;4971635;28;20422;-71
2022/04/01 00:30:58;;;;;;;29.88;18.40;;;;;;;2.74;63.80;98644.31;4969763;28;20138;-70
2022/04/01 00:33:25;;;;;;;29.50;18.42;;;;;;;2.74;63.82;98652.41;4974855;28;20050;-71
2022/04/01 00:35:50;;;;;;;30.45;18.05;;;;;;;2.74;63.60;98648.88;4970097;28;20407;-71
2022/04/01 00:38:17;;;;;;;25.10;17.17;;;;;;;2.60;63.83;98622.25;4970891;28;20061;-71
2022/04/01 00:40:43;;;;;;;26.30;17.60;;;;;;;2.74;63.86;98646.16;4971233;28;20038;-71
2022/04/01 00:43:10;;;;;;;23.77;15.98;;;;;;;2.75;63.89;98655.91;4967959;28;20153;-70
2022/04/01 00:45:37;;;;;;;24.85;16.33;;;;;;;2.73;63.96;98655.34;4969432;28;20050;-70
2022/04/01 00:48:04;;;;;;;26.00;17.25;;;;;;;2.71;63.89;98649.38;4953657;28;20082;-71
2022/04/01 00:50:32;;;;;;;25.55;16.58;;;;;;;2.75;64.07;98662.13;4971556;28;20049;-71
2022/04/01 00:52:58;;;;;;;26.50;16.33;;;;;;;2.69;64.18;98663.94;4969544;28;20074;-71
2022/04/01 00:55:27;;;;;;;25.85;15.77;;;;;;;2.66;63.99;98648.25;4970281;28;20519;-71
2022/04/01 00:57:54;;;;;;;24.52;16.35;;;;;;;2.70;63.99;98651.25;4962175;28;20089;-70
2022/04/01 01:00:20;;;;;;;24.90;15.27;;;;;;;2.68;64.24;98653.38;4953188;28;20097;-70
2022/04/01 01:02:47;;;;;;;23.10;13.97;;;;;;;2.69;64.13;98655.84;4968742;28;20130;-70
2022/04/01 01:05:13;;;;;;;23.83;14.52;;;;;;;2.72;64.01;98669.91;4966278;28;20318;-71
2022/04/01 01:07:43;;;;;;;22.48;14.43;;;;;;;2.67;63.83;98659.84;4960317;28;20051;-70
2022/04/01 01:10:10;;;;;;;22.05;13.73;;;;;;;2.72;63.98;98668.00;4970152;28;20051;-70
2022/04/01 01:12:37;;;;;;;22.23;14.02;;;;;;;2.67;64.17;98667.94;4974366;28;20050;-71
2022/04/01 01:15:10;;;;;;;22.58;12.85;;;;;;;2.54;64.01;98647.56;4970383;28;20051;-70
2022/04/01 01:17:38;;;;;;;23.52;12.60;;;;;;;2.68;63.88;98667.72;4971464;28;20051;-72
2022/04/01 01:20:12;;;;;;;21.23;13.00;;;;;;;2.71;63.86;98665.56;4966526;28;20480;-71
2022/04/01 01:22:39;;;;;;;21.25;12.13;;;;;;;2.74;63.91;98668.59;4971555;28;20494;-71
2022/04/01 01:25:09;;;;;;;21.17;12.25;;;;;;;2.77;63.42;98670.78;4971663;28;20081;-71
2022/04/01 01:27:35;;;;;;;19.98;11.25;;;;;;;2.69;63.71;98668.50;4969995;28;20566;-71
2022/04/01 01:30:03;;;;;;;19.98;11.60;;;;;;;2.78;63.41;98671.59;4974962;28;20431;-72
2022/04/01 01:32:29;;;;;;;19.00;11.30;;;;;;;2.81;63.30;98668.38;4975010;28;20046;-71
2022/04/01 01:34:56;;;;;;;19.05;11.85;;;;;;;2.81;63.22;98662.97;4968958;28;20043;-70
2022/04/01 01:37:22;;;;;;;19.50;11.48;;;;;;;2.83;63.10;98664.38;4968546;28;20113;-71
2022/04/01 01:39:49;;;;;;;21.20;11.80;;;;;;;2.85;63.01;98669.53;4975672;28;20089;-71
2022/04/01 01:42:16;;;;;;;18.98;11.77;;;;;;;2.81;63.31;98671.09;4968246;28;20039;-71
2022/04/01 01:44:42;;;;;;;21.02;11.73;;;;;;;2.78;63.28;98679.69;4978159;28;20101;-71
2022/04/01 01:47:08;;;;;;;21.08;11.90;;;;;;;2.79;63.37;98678.63;4952219;28;20109;-71
2022/04/01 01:49:35;;;;;;;18.92;11.50;;;;;;;2.87;63.36;98677.38;4979572;28;20062;-70
2022/04/01 01:54:52;;;;;;;20.25;12.00;;;;;;;2.75;63.44;98683.72;4953859;28;20137;-70
2022/04/01 01:57:22;;;;;;;19.10;11.48;;;;;;;2.70;63.48;98680.94;4967889;28;20125;-70
2022/04/01 01:59:50;;;;;;;21.05;12.57;;;;;;;2.68;63.63;98673.13;4977611;28;20109;-70
2022/04/01 02:02:17;;;;;;;;;;;;;;;2.70;63.56;98686.34;4954291;28;20053;-70
2022/04/01 02:04:45;;;;;;;21.10;12.20;;;;;;;2.68;63.52;98691.19;4976961;28;19976;-68
2022/04/01 02:07:11;;;;;;;19.70;11.93;;;;;;;2.67;63.61;98687.69;4966804;28;20502;-70
2022/04/01 02:09:40;;;;;;;20.02;12.07;;;;;;;2.67;63.84;98695.78;4969012;28;20043;-71
2022/04/01 02:12:07;;;;;;;19.85;12.00;;;;;;;2.68;63.85;98672.28;4971459;28;20147;-70
2022/04/01 02:14:34;;;;;;;19.45;12.05;;;;;;;2.68;63.49;98688.47;4963449;28;20058;-69
2022/04/01 02:17:02;;;;;;;19.40;11.77;;;;;;;2.74;63.51;98687.50;4975080;28;20065;-71
2022/04/01 02:19:31;;;;;;;19.20;11.90;;;;;;;2.75;63.43;98685.59;4961311;28;20058;-69
2022/04/01 02:21:58;;;;;;;21.05;12.50;;;;;;;2.76;63.38;98690.75;4966953;28;20314;-70
2022/04/01 02:24:26;;;;;;;18.80;12.18;;;;;;;2.73;63.60;98690.44;4961274;28;20092;-69
2022/04/01 02:26:53;;;;;;;21.70;12.77;;;;;;;2.68;63.65;98685.78;4972659;28;20098;-69
2022/04/01 02:29:21;;;;;;;20.75;12.40;;;;;;;2.66;63.58;98696.84;4970221;28;20054;-70
2022/04/01 02:32:07;;;;;;;19.55;12.25;;;;;;;2.66;63.60;98694.16;4971624;28;20047;-70
2022/04/01 02:34:53;;;;;;;20.55;13.45;;;;;;;2.72;63.45;98699.59;4975275;28;20054;-70
2022/04/01 02:37:21;;;;;;;18.10;11.60;;;;;;;2.75;63.32;98691.00;4971928;28;20053;-69
2022/04/01 02:39:47;;;;;;;17.90;11.35;;;;;;;2.71;63.31;98693.38;4978810;28;20066;-68
2022/04/01 02:42:14;;;;;;;18.42;12.07;;;;;;;2.68;63.48;98705.50;4973070;28;20146;-69
2022/04/01 02:44:40;;;;;;;17.25;11.52;;;;;;;2.74;63.41;98695.59;4963916;28;20189;-70
2022/04/01 02:47:09;;;;;;;17.73;10.88;;;;;;;2.77;63.21;98697.78;4980685;28;20053;-70
2022/04/01 02:49:35;;;;;;;18.45;11.88;;;;;;;2.70;63.20;98699.84;4972710;28;20047;-69
2022/04/01 02:52:03;;;;;;;20.58;11.32;;;;;;;2.67;63.43;98698.47;4970384;28;20050;-69
2022/04/01 02:54:34;;;;;;;16.60;10.48;;;;;;;2.73;63.24;98709.31;4975998;28;20106;-70
2022/04/01 02:57:03;;;;;;;17.30;10.25;;;;;;;2.70;63.28;98707.94;4968633;28;20058;-70
2022/04/01 02:59:29;;;;;;;15.48;9.82;;;;;;;2.80;62.95;98702.69;4978300;28;20070;-70
2022/04/01 03:01:56;;;;;;;19.52;11.05;;;;;;;2.73;63.07;98712.03;4969717;28;20049;-68
2022/04/01 03:04:25;;;;;;;17.88;10.73;;;;;;;2.70;63.21;98705.22;4971993;28;20050;-69
2022/04/01 03:06:58;;;;;;;19.00;10.05;;;;;;;2.77;63.16;98705.06;4966435;28;20130;-67
2022/04/01 03:09:24;;;;;;;17.30;9.63;;;;;;;2.66;63.34;98715.75;4973165;28;20065;-68
2022/04/01 03:12:11;;;;;;;28.42;17.45;;;;;;;2.75;63.39;98705.31;4970367;28;20133;-69
2022/04/01 03:15:02;;;;;;;23.92;13.18;;;;;;;2.76;62.98;98711.53;4983029;28;20141;-68
2022/04/01 03:17:34;;;;;;;25.13;14.35;;;;;;;2.76;63.25;98708.81;4971176;28;20864;-69
2022/04/01 03:20:13;;;;;;;23.73;12.38;;;;;;;2.70;63.05;98707.94;4947431;28;20145;-70
2022/04/01 03:22:41;;;;;;;18.42;10.77;;;;;;;2.68;62.99;98708.19;4958572;28;20590;-70
2022/04/01 03:25:09;;;;;;;17.48;10.45;;;;;;;2.76;62.96;98715.06;4972533;28;20506;-70
2022/04/01 03:27:45;;;;;;;19.30;10.10;;;;;;;2.72;63.01;98713.91;4956621;28;20047;-70
2022/04/01 03:30:13;;;;;;;17.52;9.35;;;;;;;2.73;63.23;98718.22;4964453;28;20053;-70
2022/04/01 03:32:40;;;;;;;;;;;;;;;2.83;62.88;98722.97;4957256;28;20107;-71
2022/04/01 03:35:09;;;;;;;15.88;8.80;;;;;;;2.84;62.71;98719.19;4974487;28;19930;-71
2022/04/01 03:37:35;;;;;;;15.68;7.72;;;;;;;2.73;62.94;98725.53;4974699;28;20435;-70
2022/04/01 03:40:03;;;;;;;15.30;8.43;;;;;;;2.63;63.25;98721.59;4971558;28;20511;-70
2022/04/01 03:42:31;;;;;;;27.92;16.10;;;;;;;2.67;63.26;98735.44;4971396;28;20050;-71
2022/04/01 03:45:01;;;;;;;26.55;15.63;;;;;;;2.65;63.38;98733.00;4970213;28;20137;-70
2022/04/01 03:47:56;;;;;;;17.50;10.10;;;;;;;2.64;63.33;98733.25;4962415;28;20058;-70
2022/04/01 03:50:29;;;;;;;18.52;8.85;;;;;;;2.55;63.76;98727.44;4965542;28;20137;-70
2022/04/01 03:53:02;;;;;;;15.93;8.57;;;;;;;2.52;63.82;98730.66;4954355;28;20042;-72
2022/04/01 03:55:31;;;;;;;16.58;9.10;;;;;;;2.62;63.54;98732.69;4980483;28;20047;-70
2022/04/01 03:58:27;;;;;;;18.70;8.63;;;;;;;2.62;63.56;98730.78;4964894;28;20051;-70
2022/04/01 04:01:13;;;;;;;18.52;8.27;;;;;;;2.59;63.53;98728.56;4963524;28;20070;-70
2022/04/01 04:03:40;;;;;;;14.95;7.88;;;;;;;2.69;63.20;98728.72;4970046;28;20057;-70
2022/04/01 04:06:10;;;;;;;16.15;8.50;;;;;;;2.71;63.05;98736.56;4981198;28;20057;-70
2022/04/01 04:08:39;;;;;;;16.17;7.97;;;;;;;2.57;63.73;98732.59;4970199;28;20056;-70
2022/04/01 04:11:06;;;;;;;16.45;8.85;;;;;;;2.61;63.67;98736.44;4953027;28;20051;-70
2022/04/01 04:13:45;;;;;;;14.45;8.15;;;;;;;2.62;63.65;98735.38;4954869;28;20053;-70
2022/04/01 04:16:20;;;;;;;14.55;8.20;;;;;;;2.69;63.41;98733.31;4971109;28;20047;-69
2022/04/01 04:18:49;;;;;;;22.25;11.88;;;;;;;2.58;63.54;98726.16;4970396;28;20105;-69
2022/04/01 04:21:25;;;;;;;18.90;9.52;;;;;;;2.60;63.50;98724.81;4960930;28;20074;-69
2022/04/01 04:23:55;;;;;;;16.95;9.07;;;;;;;2.64;63.57;98725.13;4966457;28;20069;-69
2022/04/01 04:26:25;;;;;;;16.65;8.68;;;;;;;2.66;63.59;98731.94;4978020;28;20047;-70
2022/04/01 04:29:01;;;;;;;13.65;7.47;;;;;;;2.68;63.35;98737.06;4962771;28;20467;-74
2022/04/01 04:31:59;;;;;;;13.20;7.40;;;;;;;2.74;63.39;98746.06;4961702;28;20102;-73
2022/04/01 04:34:31;;;;;;;13.90;7.60;;;;;;;2.72;63.04;98746.28;4986080;28;20064;-75
2022/04/01 04:36:59;;;;;;;13.77;7.80;;;;;;;2.66;63.17;98740.03;4963845;28;20062;-74
2022/04/01 04:39:31;;;;;;;13.00;7.50;;;;;;;2.74;62.93;98740.66;4958267;28;20583;-75
2022/04/01 04:41:58;;;;;;;13.18;7.90;;;;;;;2.72;63.17;98749.00;4943407;28;20065;-77
2022/04/01 04:44:28;;;;;;;13.90;7.43;;;;;;;2.70;63.28;98748.44;4969578;28;20178;-76
2022/04/01 04:46:56;;;;;;;15.45;7.72;;;;;;;2.66;63.58;98753.53;4966343;28;20153;-75
2022/04/01 04:49:25;;;;;;;13.25;7.03;;;;;;;2.69;63.16;98742.22;4976345;28;20058;-74
2022/04/01 04:51:52;;;;;;;;;;;;;;;2.76;63.28;98752.84;4970186;28;20483;-76
2022/04/01 04:54:25;;;;;;;12.20;6.68;;;;;;;2.74;62.92;98749.59;4980472;28;19932;-73
2022/04/01 04:57:21;;;;;;;11.95;6.32;;;;;;;2.68;63.05;98754.09;4966004;28;20145;-73
2022/04/01 04:59:50;;;;;;;15.30;7.28;;;;;;;2.67;63.12;98757.03;4958289;28;20050;-73
2022/04/01 05:02:31;;;;;;;13.00;6.72;;;;;;;2.75;62.81;98764.72;4950901;28;20047;-72
2022/04/01 05:05:04;;;;;;;16.00;7.05;;;;;;;2.74;62.98;98773.88;4966916;28;20480;-74
2022/04/01 05:08:05;;;;;;;13.57;6.70;;;;;;;2.69;62.96;98773.78;4965562;28;20058;-75
2022/04/01 05:11:08;;;;;;;12.02;6.93;;;;;;;2.84;62.20;98781.31;4974037;28;21317;-73
2022/04/01 05:13:44;;;;;;;12.35;6.63;;;;;;;2.77;62.56;98775.25;4970103;28;20074;-72
2022/04/01 05:16:24;;;;;;;16.02;6.50;;;;;;;2.79;62.56;98776.66;4968737;28;20134;-73
2022/04/01 05:19:00;;;;;;;12.07;6.68;;;;;;;2.77;62.54;98780.66;4975386;28;20060;-73
2022/04/01 05:21:36;;;;;;;13.27;7.72;;;;;;;2.82;62.35;98773.44;4959617;28;20151;-74
2022/04/01 05:24:07;;;;;;;13.25;7.03;;;;;;;2.73;62.71;98779.50;4968765;28;20145;-74
2022/04/01 05:26:40;;;;;;;13.32;6.80;;;;;;;2.79;62.61;98784.75;4966739;28;20047;-74
2022/04/01 05:29:13;;;;;;;14.00;6.70;;;;;;;2.78;62.56;98793.91;4970310;28;20137;-73
2022/04/01 05:31:48;;;;;;;12.07;6.80;;;;;;;2.89;62.32;98789.47;4978190;28;20499;-73
2022/04/01 05:34:20;;;;;;;15.60;8.75;;;;;;;2.84;62.35;98786.72;4968807;28;20043;-74
2022/04/01 05:36:51;;;;;;;14.57;7.63;;;;;;;2.98;61.83;98787.97;4953457;28;20467;-73
2022/04/01 05:39:20;;;;;;;13.65;7.03;;;;;;;2.95;61.78;98790.34;4965242;28;20042;-73
2022/04/01 05:41:54;;;;;;;14.15;6.93;;;;;;;2.97;61.77;98783.66;4974005;28;20050;-72
2022/04/01 05:44:21;;;;;;;;;;;;;;;2.94;61.86;98786.03;4960747;28;20055;-71
2022/04/01 05:46:50;;;;;;;13.27;7.38;;;;;;;2.88;61.94;98777.03;4971863;28;19932;-70
2022/04/01 05:49:18;;;;;;;12.20;7.07;;;;;;;2.85;61.82;98774.84;4980996;28;20051;-69
2022/04/01 05:51:46;;;;;;;12.35;6.55;;;;;;;2.92;61.75;98777.34;4961179;28;20527;-70
2022/04/01 05:54:15;;;;;;;16.33;7.18;;;;;;;2.92;61.76;98782.75;4974931;28;20047;-70
2022/04/01 05:56:45;;;;;;;14.00;7.07;;;;;;;2.94;61.74;98786.81;4970107;28;20055;-68
2022/04/01 05:59:14;;;;;;;12.40;6.50;;;;;;;2.86;61.87;98781.03;4970042;28;20081;-70
2022/04/01 06:01:45;;;;;;;44.45;22.90;;;;;;;2.82;62.11;98786.13;4973629;28;20042;-74
2022/04/01 06:04:48;;;;;;;24.52;11.13;;;;;;;2.90;61.85;98788.41;4981516;28;20408;-73
2022/04/01 06:07:27;;;;;;;21.35;7.85;;;;;;;2.93;61.66;98789.78;4987406;28;20621;-72
2022/04/01 06:10:00;;;;;;;13.50;6.40;;;;;;;2.94;61.62;98797.63;4973218;28;20420;-72
2022/04/01 06:12:59;;;;;;;10.35;5.13;;;;;;;2.93;61.28;98785.19;4984294;28;20047;-73
2022/04/01 06:15:54;;;;;;;11.27;5.20;;;;;;;2.93;61.19;98781.69;4989024;28;20109;-73
2022/04/01 06:18:50;;;;;;;9.85;5.05;;;;;;;2.89;61.06;98775.13;4973125;28;20353;-73
2022/04/01 06:21:22;;;;;;;9.68;5.07;;;;;;;3.01;60.73;98773.16;4953899;28;20046;-73
2022/04/01 06:24:07;;;;;;;11.52;4.75;;;;;;;3.09;60.63;98780.81;4986477;28;20078;-74
2022/04/01 06:26:39;;;;;;;10.10;4.38;;;;;;;3.12;60.56;98782.19;4953764;28;20537;-73
2022/04/01 06:29:33;;;;;;;9.80;5.05;;;;;;;2.97;60.88;98770.16;4954882;28;20055;-73
2022/04/01 06:32:05;;;;;;;12.20;4.47;;;;;;;3.07;60.64;98779.44;4967870;28;20055;-73
2022/04/01 06:34:41;;;;;;;9.68;4.35;;;;;;;3.05;60.65;98786.97;4977633;28;20038;-73
2022/04/01 06:37:34;;;;;;;12.00;4.38;;;;;;;3.21;60.11;98786.09;4944933;28;20538;-73
2022/04/01 06:40:07;;;;;;;9.77;4.38;;;;;;;3.15;60.42;98780.88;4995564;28;20053;-72
2022/04/01 06:42:44;;;;;;;9.77;5.00;;;;;;;3.17;60.16;98787.69;4969157;28;20186;-73
2022/04/01 06:45:29;;;;;;;10.45;5.15;;;;;;;3.12;60.23;98782.19;4968999;28;20070;-73
2022/04/01 06:48:19;;;;;;;12.23;4.88;;;;;;;3.23;59.93;98780.47;4927081;28;20134;-74
2022/04/01 06:51:04;;;;;;;9.10;4.60;;;;;;;3.18;59.64;98767.69;4962517;28;20038;-76
2022/04/01 06:53:50;;;;;;;9.37;4.83;;;;;;;3.25;59.66;98789.94;4942269;28;20065;-74
2022/04/01 06:56:45;;;;;;;10.98;4.97;;;;;;;3.29;59.66;98792.16;4919824;28;20320;-76
2022/04/01 06:59:13;;;;;;;11.73;5.35;;;;;;;3.29;59.72;98784.84;4975067;28;20047;-74
2022/04/01 07:01:39;;;;;;;;;;;;;;;3.23;59.80;98792.06;4973371;28;20504;-74
2022/04/01 07:04:06;;;;;;;23.52;10.77;;;;;;;3.28;59.95;98793.19;4976284;28;20020;-75
2022/04/01 07:06:34;;;;;;;14.00;6.95;;;;;;;3.29;59.56;98792.94;4971927;28;20116;-75
2022/04/01 07:09:00;;;;;;;;;;;;;;;3.30;59.75;98791.09;4975715;28;20062;-74
2022/04/01 07:11:26;;;;;;;12.02;5.05;;;;;;;3.37;59.47;98791.69;4985860;28;20421;-73
2022/04/01 07:13:53;;;;;;;10.43;4.47;;;;;;;3.45;59.29;98783.16;4983528;28;20423;-73
2022/04/01 07:16:19;;;;;;;8.65;4.18;;;;;;;3.48;59.21;98787.22;4972818;28;20534;-71
2022/04/01 07:18:45;;;;;;;9.63;4.70;;;;;;;3.54;59.18;98783.53;4971574;28;20050;-72
2022/04/01 07:21:13;;;;;;;9.27;4.57;;;;;;;3.58;59.28;98781.94;4969737;28;20047;-71
2022/04/01 07:23:39;;;;;;;;;;;;;;;3.60;58.91;98787.91;4976163;28;20074;-71
2022/04/01 07:26:06;;;;;;;8.48;3.75;;;;;;;3.65;58.74;98779.84;4973381;28;20266;-72
2022/04/01 07:28:33;;;;;;;13.02;6.75;;;;;;;3.66;58.57;98776.06;4978072;28;20491;-71
2022/04/01 07:32:28;;;;;;;12.03;5.60;;;;;;;3.56;58.86;98789.50;4955538;28;20059;-70
2022/04/01 07:33:46;;;;;;;9.00;4.47;;;;;;;3.50;58.62;98783.19;4967187;28;20706;-73
2022/04/01 07:36:13;;;;;;;8.82;4.00;;;;;;;3.59;58.30;98788.97;4972671;28;20050;-73
2022/04/01 07:38:39;;;;;;;9.03;3.90;;;;;;;3.57;58.37;98780.31;4973499;28;20050;-74
2022/04/01 07:41:05;;;;;;;7.55;3.55;;;;;;;3.63;58.13;98787.38;4975478;28;20340;-78
2022/04/01 07:43:32;;;;;;;9.32;4.18;;;;;;;3.62;58.15;98788.47;4984188;28;20507;-78
2022/04/01 07:45:58;;;;;;;10.10;4.75;;;;;;;3.55;58.23;98775.16;4969128;28;20051;-80
2022/04/01 07:48:24;;;;;;;12.70;4.03;;;;;;;3.68;57.81;98787.47;4987208;28;20507;-79
2022/04/01 07:50:50;;;;;;;9.68;3.75;;;;;;;3.77;57.86;98787.81;4970819;28;20065;-79
2022/04/01 07:53:17;;;;;;;8.70;3.70;;;;;;;3.87;57.17;98791.69;4980332;28;20051;-79
2022/04/01 07:55:48;;;;;;;7.95;3.75;;;;;;;3.94;56.94;98786.91;4970654;28;20138;-79
2022/04/01 07:58:15;;;;;;;8.82;3.95;;;;;;;3.91;56.88;98782.81;4970766;28;20066;-80
2022/04/01 08:00:41;;;;;;;13.88;5.82;;;;;;;3.97;56.76;98783.69;4983263;28;20062;-80
2022/04/01 08:03:08;;;;;;;11.40;4.53;;;;;;;3.97;56.86;98787.19;4979291;28;20439;-79
2022/04/01 08:05:34;;;;;;;9.07;3.83;;;;;;;3.95;56.50;98775.00;4970665;28;20569;-80
2022/04/01 08:08:00;;;;;;;8.82;4.00;;;;;;;3.86;56.81;98788.19;4954858;28;20061;-79
2022/04/01 08:10:27;;;;;;;8.18;3.90;;;;;;;3.90;56.69;98786.59;4964528;28;20069;-75
2022/04/01 08:12:53;;;;;;;9.02;4.10;;;;;;;3.97;56.74;98784.47;4971923;28;20055;-78
2022/04/01 08:15:19;;;;;;;9.57;4.60;;;;;;;3.94;56.64;98776.88;4985234;28;20051;-76
2022/04/01 08:17:46;;;;;;;10.23;4.22;;;;;;;4.01;56.34;98782.09;4972354;28;20057;-77
2022/04/01 08:20:12;;;;;;;8.68;3.97;;;;;;;4.10;56.17;98780.56;4970394;28;20769;-76
2022/04/01 08:22:39;;;;;;;9.55;4.20;;;;;;;4.08;56.22;98784.59;4970390;28;20138;-76
2022/04/01 08:25:06;;;;;;;10.05;4.13;;;;;;;4.06;56.37;98784.88;4969303;28;20039;-77
2022/04/01 08:27:33;;;;;;;9.73;4.25;;;;;;;4.16;55.84;98789.53;4961632;28;20060;-77
2022/04/01 08:30:00;;;;;;;10.00;3.83;;;;;;;4.24;55.70;98790.97;4974749;28;20383;-75
2022/04/01 08:32:28;;;;;;;12.15;3.75;;;;;;;4.35;55.58;98791.88;4971713;28;20055;-76
2022/04/01 08:34:55;;;;;;;11.43;3.80;;;;;;;4.29;55.32;98788.28;4970282;28;20133;-75
2022/04/01 08:37:21;;;;;;;10.20;3.70;;;;;;;4.38;54.94;98783.22;4972050;28;20089;-77
2022/04/01 08:39:47;;;;;;;8.18;3.80;;;;;;;4.53;54.80;98796.06;4968619;28;20050;-75
2022/04/01 08:42:13;;;;;;;8.88;3.65;;;;;;;4.62;54.14;98793.69;4985861;28;20431;-75
2022/04/01 08:44:45;;;;;;;8.23;3.63;;;;;;;4.70;54.22;98797.81;4965290;28;20149;-76
2022/04/01 08:47:11;;;;;;;9.27;3.90;;;;;;;4.78;53.80;98786.47;4973032;28;20157;-74
2022/04/01 08:49:38;;;;;;;9.55;3.33;;;;;;;4.82;53.51;98782.97;4978840;28;20050;-77
2022/04/01 08:52:05;;;;;;;8.80;3.40;;;;;;;4.84;53.22;98796.28;4972754;28;20411;-74
2022/04/01 08:54:32;;;;;;;8.80;3.13;;;;;;;4.83;53.29;98800.88;4967815;28;20503;-74
2022/04/01 08:56:58;;;;;;;8.55;3.40;;;;;;;4.89;52.92;98796.31;4967759;28;20055;-74
2022/04/01 08:59:27;;;;;;;11.20;3.42;;;;;;;4.96;52.90;98793.38;4986374;28;20592;-74
2022/04/01 09:02:03;;;;;;;28.60;13.38;;;;;;;4.95;52.93;98787.13;4975236;28;20050;-74
2022/04/01 09:04:29;;;;;;;22.75;11.13;;;;;;;5.03;52.43;98785.00;4968302;28;20062;-75
2022/04/01 09:06:55;;;;;;;13.60;6.53;;;;;;;5.02;52.43;98783.38;4972007;28;20051;-74
2022/04/01 09:09:24;;;;;;;11.23;4.70;;;;;;;5.08;52.38;98798.56;4972842;28;20588;-74
2022/04/01 09:12:11;;;;;;;11.32;4.25;;;;;;;5.11;52.00;98798.03;4970236;28;20341;-74
2022/04/01 09:14:39;;;;;;;8.70;3.63;;;;;;;5.23;52.02;98808.69;4963089;28;20047;-74
2022/04/01 09:17:07;;;;;;;8.40;3.60;;;;;;;5.31;51.72;98800.03;4971737;28;20057;-72
2022/04/01 09:19:36;;;;;;;8.60;3.13;;;;;;;5.37;51.51;98793.53;4988423;28;20059;-73
2022/04/01 09:22:19;;;;;;;8.10;3.08;;;;;;;5.46;51.39;98791.13;4967389;28;20069;-74
2022/04/01 09:25:02;;;;;;;7.72;3.13;;;;;;;5.57;51.13;98796.59;4968214;28;20062;-74
2022/04/01 09:27:45;;;;;;;9.20;3.40;;;;;;;5.69;50.98;98789.06;4968189;28;20057;-73
2022/04/01 09:30:13;;;;;;;9.27;3.08;;;;;;;5.84;50.67;98792.88;4975392;28;20150;-75
2022/04/01 09:32:42;;;;;;;8.02;3.15;;;;;;;5.90;50.47;98794.50;4963166;28;20582;-72
2022/04/01 09:35:11;;;;;;;7.93;3.28;;;;;;;5.95;50.22;98780.97;4968359;28;20133;-72
2022/04/01 09:37:38;;;;;;;8.23;2.92;;;;;;;6.02;49.98;98775.31;4971371;28;20074;-72
2022/04/01 09:40:05;;;;;;;;;;;;;;;6.03;49.76;98788.59;4972591;28;20039;-73
2022/04/01 09:42:31;;;;;;;8.87;3.57;;;;;;;6.17;49.57;98775.34;4970601;28;19932;-72
2022/04/01 09:44:58;;;;;;;7.63;3.33;;;;;;;6.23;49.33;98771.53;4955022;28;20113;-73
2022/04/01 09:47:25;;;;;;;15.38;7.85;;;;;;;6.39;49.19;98777.75;4973942;28;20046;-72
2022/04/01 09:49:54;;;;;;;12.55;5.90;;;;;;;6.42;49.19;98781.03;4972233;28;20065;-72
2022/04/01 09:52:22;;;;;;;11.13;4.95;;;;;;;6.41;49.34;98780.22;4976270;28;20177;-73
2022/04/01 09:54:50;;;;;;;8.75;3.85;;;;;;;6.49;49.20;98776.97;4973896;28;20050;-73
2022/04/01 09:57:19;;;;;;;8.35;3.72;;;;;;;6.52;49.05;98776.41;4972452;28;20054;-73
2022/04/01 09:59:47;;;;;;;9.57;3.80;;;;;;;6.55;48.77;98766.09;4973646;28;20047;-72
2022/04/01 10:02:14;;;;;;;8.88;4.03;;;;;;;6.60;48.66;98764.19;4972461;28;20509;-73
2022/04/01 10:04:40;;;;;;;9.55;4.50;;;;;;;6.77;48.35;98763.06;4992818;28;20055;-73
2022/04/01 10:07:08;;;;;;;9.60;4.10;;;;;;;6.77;48.30;98760.34;4971889;28;20043;-72
2022/04/01 10:09:34;;;;;;;;;;;;;;;6.70;48.01;98755.19;4967703;28;20051;-72
2022/04/01 10:12:03;;;;;;;10.75;3.85;;;;;;;6.74;47.81;98760.91;4968928;28;19930;-72
2022/04/01 10:14:31;;;;;;;7.68;3.47;;;;;;;6.80;47.88;98740.75;4973941;28;20054;-72
2022/04/01 10:17:00;;;;;;;10.65;3.95;;;;;;;6.90;47.69;98748.06;4981143;28;20057;-71
2022/04/01 10:19:32;;;;;;;9.52;3.30;;;;;;;6.95;47.49;98750.78;4972762;28;20141;-72
2022/04/01 10:21:59;;;;;;;8.32;3.25;;;;;;;6.85;47.28;98746.19;4973347;28;20065;-73
2022/04/01 10:24:38;;;;;;;9.75;3.53;;;;;;;6.93;47.10;98740.19;4973939;28;20052;-72
2022/04/01 10:27:14;;;;;;;8.82;3.58;;;;;;;7.10;46.70;98739.03;4972612;28;20090;-71
2022/04/01 10:29:44;;;;;;;9.23;4.18;;;;;;;7.15;46.89;98730.06;4974815;28;20533;-72
2022/04/01 10:32:21;;;;;;;9.52;3.90;;;;;;;7.38;46.36;98740.28;4981619;28;20057;-72
2022/04/01 10:34:49;;;;;;;7.72;3.25;;;;;;;7.49;46.21;98735.63;4968256;28;20468;-73
2022/04/01 10:37:17;;;;;;;8.80;3.30;;;;;;;7.55;45.88;98741.81;4970978;28;20088;-72
2022/04/01 10:39:49;;;;;;;8.27;3.28;;;;;;;7.61;45.79;98734.44;4974708;28;20201;-74
2022/04/01 10:42:16;;;;;;;7.68;3.25;;;;;;;7.77;45.57;98716.13;4973733;28;20145;-73
2022/04/01 10:44:48;;;;;;;8.48;3.40;;;;;;;7.87;44.91;98721.47;4978378;28;20047;-74
2022/04/01 10:47:15;;;;;;;10.32;3.30;;;;;;;8.00;44.88;98720.03;4956673;28;20520;-73
2022/04/01 10:52:27;;;;;;;6.53;2.92;;;;;;;8.36;44.25;98713.50;4965711;28;20097;-72
2022/04/01 10:55:09;;;;;;;7.85;3.20;;;;;;;8.45;44.16;98714.47;4974391;28;20050;-75
2022/04/01 10:57:40;;;;;;;6.97;3.22;;;;;;;8.55;43.50;98708.13;4971875;28;20043;-74
2022/04/01 11:00:13;;;;;;;7.22;3.30;;;;;;;8.57;43.33;98705.13;4974137;28;20054;-75
2022/04/01 11:02:39;;;;;;;6.95;3.10;;;;;;;8.60;42.98;98701.84;4951746;28;20053;-74
2022/04/01 11:05:29;;;;;;;7.97;3.33;;;;;;;8.58;42.35;98699.38;4969630;28;20050;-74
2022/04/01 11:08:19;;;;;;;8.88;3.08;;;;;;;8.57;42.30;98689.59;4966733;28;20140;-76
2022/04/01 11:11:08;;;;;;;11.75;5.00;;;;;;;8.61;42.10;98690.66;4985121;28;20075;-74
2022/04/01 11:13:36;;;;;;;12.07;5.68;;;;;;;8.71;41.87;98688.91;4970193;28;20061;-73
2022/04/01 11:16:20;;;;;;;9.43;4.63;;;;;;;8.80;41.57;98676.28;4967966;28;20546;-75
2022/04/01 11:19:14;;;;;;;10.30;4.15;;;;;;;8.91;41.42;98682.41;4985350;28;20049;-74
2022/04/01 11:21:44;;;;;;;9.13;4.05;;;;;;;9.14;41.28;98674.50;4971214;28;20082;-74
2022/04/01 11:24:29;;;;;;;10.23;3.67;;;;;;;9.35;41.02;98688.66;4970497;28;20062;-73
2022/04/01 11:27:04;;;;;;;9.13;3.72;;;;;;;9.56;40.72;98674.75;4968885;28;20146;-74
2022/04/01 11:29:31;;;;;;;12.65;3.40;;;;;;;9.73;40.50;98666.03;4962944;28;20467;-74
2022/04/01 11:32:03;;;;;;;10.00;3.50;;;;;;;9.82;39.99;98664.25;4977708;28;20537;-75
2022/04/01 11:34:29;;;;;;;6.78;3.20;;;;;;;9.93;39.57;98667.63;4976430;28;20527;-75
2022/04/01 11:37:00;;;;;;;9.80;3.37;;;;;;;10.05;39.10;98651.59;4971599;28;20051;-73
2022/04/01 11:39:27;;;;;;;6.38;2.55;;;;;;;10.15;38.77;98653.31;4977002;28;20065;-74
2022/04/01 11:41:54;;;;;;;12.43;5.22;;;;;;;10.04;38.17;98649.13;4979379;28;20121;-74
2022/04/01 11:44:22;;;;;;;10.88;4.40;;;;;;;9.96;38.07;98647.09;4973206;28;20055;-73
2022/04/01 11:46:53;;;;;;;8.75;3.38;;;;;;;9.87;38.20;98638.78;4969751;28;20138;-74
2022/04/01 11:49:19;;;;;;;10.68;3.33;;;;;;;9.78;38.01;98642.19;4970367;28;20062;-74
2022/04/01 11:51:45;;;;;;;7.45;3.13;;;;;;;9.82;37.97;98633.38;4997121;28;20069;-73
2022/04/01 11:54:11;;;;;;;9.93;3.00;;;;;;;9.77;37.88;98632.38;4972478;28;20516;-75
2022/04/01 11:56:38;;;;;;;7.28;3.03;;;;;;;9.72;37.80;98623.44;4966327;28;20047;-74
2022/04/01 11:59:07;;;;;;;6.60;2.78;;;;;;;9.69;37.81;98619.41;4970635;28;20054;-75
2022/04/01 12:01:54;;;;;;;6.40;2.60;;;;;;;9.58;37.90;98616.03;4968856;28;20054;-74